createdAt,value
2019-03-16T00:02:07.503Z,100702.18
2019-03-16T00:04:37.813Z,100702.18
2019-03-16T00:07:10.407Z,100710.98
2019-03-16T00:09:40.679Z,100703.28
2019-03-16T00:12:13.320Z,100692.19
2019-03-16T00:14:43.707Z,100688.98
2019-03-16T00:17:23.044Z,100686.09
2019-03-16T00:19:47.357Z,100705.84
2019-03-16T00:22:19.667Z,100704.67
2019-03-16T00:24:51.785Z,100712.34
2019-03-16T00:27:22.950Z,100720.48
2019-03-16T00:29:53.310Z,100728.30
2019-03-16T00:32:25.236Z,100722.31
2019-03-16T00:34:55.542Z,100722.53
2019-03-16T00:37:25.941Z,100714.83
2019-03-16T00:39:56.559Z,100724.31
2019-03-16T00:42:27.150Z,100722.64
2019-03-16T00:44:57.675Z,100737.09
2019-03-16T00:47:27.981Z,100724.31
2019-03-16T00:49:58.609Z,100711.91
2019-03-16T00:52:29.021Z,100719.86
2019-03-16T00:54:59.308Z,100721.87
2019-03-16T00:57:29.862Z,100714.89
2019-03-16T01:00:00.418Z,100717.41
2019-03-16T01:02:32.842Z,100726.88
2019-03-16T01:05:03.271Z,100724.20
2019-03-16T01:07:33.912Z,100719.67
2019-03-16T01:10:04.656Z,100725.03
2019-03-16T01:12:35.034Z,100729.92
2019-03-16T01:15:08.185Z,100736.66
2019-03-16T01:17:38.750Z,100738.57
2019-03-16T01:20:11.919Z,100729.34
2019-03-16T01:22:42.246Z,100731.42
2019-03-16T01:25:13.497Z,100729.92
2019-03-16T01:27:44.969Z,100720.63
2019-03-16T01:30:16.962Z,100729.31
2019-03-16T01:32:47.246Z,100738.49
2019-03-16T01:35:18.554Z,100728.75
2019-03-16T01:37:49.172Z,100728.75
2019-03-16T01:40:19.476Z,100734.22
2019-03-16T01:42:50.408Z,100740.12
2019-03-16T01:45:20.882Z,100745.87
2019-03-16T01:47:51.498Z,100732.11
2019-03-16T01:50:22.001Z,100731.13
2019-03-16T01:52:52.814Z,100726.77
2019-03-16T01:55:23.213Z,100736.66
2019-03-16T01:57:53.827Z,100733.67
2019-03-16T02:00:24.121Z,100732.06
2019-03-16T02:02:55.937Z,100729.91
2019-03-16T02:05:26.620Z,100740.24
2019-03-16T02:07:56.968Z,100732.11
2019-03-16T02:10:27.285Z,100727.12
2019-03-16T02:12:58.932Z,100730.51
2019-03-16T02:15:29.200Z,100736.05
2019-03-16T02:17:59.503Z,100730.03
2019-03-16T02:20:29.795Z,100734.26
2019-03-16T02:23:00.557Z,100733.45
2019-03-16T02:25:30.860Z,100729.95
2019-03-16T02:28:01.174Z,100722.94
2019-03-16T02:30:31.778Z,100725.58
2019-03-16T02:33:12.521Z,100727.09
2019-03-16T02:35:34.215Z,100731.48
2019-03-16T02:38:04.527Z,100727.77
2019-03-16T02:40:34.925Z,100722.55
2019-03-16T02:43:05.246Z,100729.72
2019-03-16T02:45:35.650Z,100715.25
2019-03-16T02:48:05.946Z,100721.42
2019-03-16T02:50:36.536Z,100723.66
2019-03-16T02:53:07.141Z,100721.38
2019-03-16T02:55:38.816Z,100705.95
2019-03-16T02:58:09.130Z,100712.78
2019-03-16T03:00:40.023Z,100707.27
2019-03-16T03:03:10.467Z,100713.20
2019-03-16T03:05:40.787Z,100711.10
2019-03-16T03:08:11.219Z,100704.16
2019-03-16T03:10:42.818Z,100705.31
2019-03-16T03:13:14.131Z,100705.31
2019-03-16T03:15:44.672Z,100698.10
2019-03-16T03:18:14.940Z,100689.93
2019-03-16T03:20:45.339Z,100687.21
2019-03-16T03:23:15.926Z,100688.36
2019-03-16T03:25:46.213Z,100705.97
2019-03-16T03:28:16.551Z,100707.13
2019-03-16T03:30:46.854Z,100706.60
2019-03-16T03:33:17.193Z,100706.69
2019-03-16T03:35:47.570Z,100704.93
2019-03-16T03:38:17.920Z,100704.53
2019-03-16T03:40:48.249Z,100708.36
2019-03-16T03:43:20.743Z,100713.06
2019-03-16T03:45:51.015Z,100710.95
2019-03-16T03:48:21.443Z,100710.43
2019-03-16T03:50:51.708Z,100717.60
2019-03-16T03:53:22.041Z,100710.30
2019-03-16T03:55:52.315Z,100707.70
2019-03-16T03:58:22.723Z,100704.68
2019-03-16T04:00:53.247Z,100708.98
2019-03-16T04:03:23.586Z,100700.91
2019-03-16T04:05:54.173Z,100697.95
2019-03-16T04:08:24.492Z,100697.63
2019-03-16T04:10:55.284Z,100695.88
2019-03-16T04:13:25.589Z,100695.88
2019-03-16T04:15:55.956Z,100702.38
2019-03-16T04:18:26.253Z,100698.95
2019-03-16T04:20:57.980Z,100704.45
2019-03-16T04:23:28.305Z,100707.08
2019-03-16T04:25:59.330Z,100705.05
2019-03-16T04:28:29.637Z,100698.28
2019-03-16T04:31:00.236Z,100700.20
2019-03-16T04:33:30.546Z,100689.56
2019-03-16T04:36:00.920Z,100698.92
2019-03-16T04:38:31.217Z,100704.47
2019-03-16T04:41:01.554Z,100694.27
2019-03-16T04:43:31.816Z,100695.09
2019-03-16T04:46:02.159Z,100687.48
2019-03-16T04:48:32.570Z,100687.45
2019-03-16T04:51:02.948Z,100685.65
2019-03-16T04:53:33.348Z,100678.39
2019-03-16T04:56:03.745Z,100678.39
2019-03-16T04:58:34.459Z,100680.23
2019-03-16T05:01:04.806Z,100681.11
2019-03-16T05:03:35.140Z,100682.39
2019-03-16T05:06:05.642Z,100684.94
2019-03-16T05:08:37.392Z,100675.61
2019-03-16T05:11:07.689Z,100681.98
2019-03-16T05:13:37.946Z,100680.31
2019-03-16T05:16:08.868Z,100668.76
2019-03-16T05:18:39.289Z,100668.76
2019-03-16T05:21:09.574Z,100673.94
2019-03-16T05:23:42.192Z,100679.91
2019-03-16T05:26:12.656Z,100670.55
2019-03-16T05:28:44.854Z,100685.45
2019-03-16T05:31:15.512Z,100682.91
2019-03-16T05:33:45.804Z,100688.02
2019-03-16T05:36:16.467Z,100673.98
2019-03-16T05:38:46.782Z,100673.98
2019-03-16T05:41:17.099Z,100670.51
2019-03-16T05:43:47.515Z,100668.76
2019-03-16T05:46:18.782Z,100667.04
2019-03-16T05:48:49.092Z,100680.59
2019-03-16T05:51:20.455Z,100663.33
2019-03-16T05:53:51.106Z,100663.33
2019-03-16T05:56:21.761Z,100670.34
2019-03-16T05:58:52.050Z,100666.05
2019-03-16T06:01:22.384Z,100670.22
2019-03-16T06:03:52.674Z,100667.16
2019-03-16T06:06:22.973Z,100667.16
2019-03-16T06:08:53.569Z,100671.82
2019-03-16T06:11:25.179Z,100667.47
2019-03-16T06:13:55.757Z,100661.85
2019-03-16T06:16:26.057Z,100667.83
2019-03-16T06:18:56.644Z,100676.36
2019-03-16T06:21:27.022Z,100673.84
2019-03-16T06:23:58.006Z,100670.78
2019-03-16T06:26:28.369Z,100665.20
2019-03-16T06:28:58.963Z,100656.71
2019-03-16T06:31:29.246Z,100658.38
2019-03-16T06:34:02.112Z,100654.16
2019-03-16T06:36:32.510Z,100659.66
2019-03-16T06:39:06.403Z,100651.13
2019-03-16T06:41:37.058Z,100661.44
2019-03-16T06:44:09.770Z,100660.84
2019-03-16T06:46:40.211Z,100657.41
2019-03-16T06:49:11.738Z,100650.36
2019-03-16T06:51:42.070Z,100660.16
2019-03-16T06:54:14.383Z,100655.06
2019-03-16T06:56:44.722Z,100635.47
2019-03-16T06:59:15.093Z,100636.57
2019-03-16T07:01:45.581Z,100647.13
2019-03-16T07:04:19.385Z,100642.07
2019-03-16T07:06:50.048Z,100645.22
2019-03-16T07:09:20.370Z,100629.09
2019-03-16T07:11:51.017Z,100625.47
2019-03-16T07:14:21.300Z,100617.22
2019-03-16T07:17:01.363Z,100613.36
2019-03-16T07:19:23.611Z,100608.89
2019-03-16T07:21:54.299Z,100607.89
2019-03-16T07:24:24.643Z,100607.89
2019-03-16T07:26:56.556Z,100606.45
2019-03-16T07:29:26.868Z,100601.86
2019-03-16T07:31:58.121Z,100596.63
2019-03-16T07:34:28.478Z,100590.63
2019-03-16T07:36:59.101Z,100593.23
2019-03-16T07:39:30.061Z,100593.67
2019-03-16T07:42:00.855Z,100590.50
2019-03-16T07:44:32.506Z,100581.45
2019-03-16T07:47:03.599Z,100582.96
2019-03-16T07:49:33.920Z,100581.77
2019-03-16T07:54:40.224Z,100578.98
2019-03-16T07:57:10.580Z,100568.95
2019-03-16T07:59:41.097Z,100578.58
2019-03-16T08:02:11.404Z,100576.95
2019-03-16T08:04:43.486Z,100565.08
2019-03-16T08:07:13.827Z,100562.89
2019-03-16T08:09:44.160Z,100564.36
2019-03-16T08:12:14.653Z,100576.61
2019-03-16T08:14:46.418Z,100570.42
2019-03-16T08:17:16.713Z,100588.93
2019-03-16T08:19:50.162Z,100595.33
2019-03-16T08:22:20.569Z,100594.86
2019-03-16T08:24:51.168Z,100580.78
2019-03-16T08:27:21.466Z,100596.33
2019-03-16T08:29:52.100Z,100597.60
2019-03-16T08:32:25.314Z,100601.44
2019-03-16T08:34:54.569Z,100585.62
2019-03-16T08:37:25.844Z,100594.14
2019-03-16T08:39:58.775Z,100582.53
2019-03-16T08:42:29.438Z,100599.48
2019-03-16T08:45:01.148Z,100590.52
2019-03-16T08:47:31.759Z,100591.80
2019-03-16T08:50:02.354Z,100593.95
2019-03-16T08:52:32.897Z,100582.53
2019-03-16T08:55:04.945Z,100577.00
2019-03-16T08:57:35.578Z,100571.11
2019-03-16T09:00:06.684Z,100588.02
2019-03-16T09:02:37.051Z,100584.06
2019-03-16T09:05:07.391Z,100576.81
2019-03-16T09:07:39.137Z,100576.41
2019-03-16T09:10:09.960Z,100583.21
2019-03-16T09:12:40.568Z,100580.30
2019-03-16T09:15:11.621Z,100577.45
2019-03-16T09:17:41.991Z,100584.45
2019-03-16T09:20:12.297Z,100578.89
2019-03-16T09:22:42.893Z,100574.51
2019-03-16T09:25:13.198Z,100560.46
2019-03-16T09:27:43.805Z,100554.27
2019-03-16T09:30:14.270Z,100558.13
2019-03-16T09:32:45.044Z,100550.81
2019-03-16T09:35:15.480Z,100562.20
2019-03-16T09:37:45.907Z,100559.97
2019-03-16T09:40:16.262Z,100550.53
2019-03-16T09:42:48.721Z,100545.45
2019-03-16T09:45:19.078Z,100553.30
2019-03-16T09:47:49.428Z,100544.67
2019-03-16T09:50:19.815Z,100544.17
2019-03-16T09:52:50.151Z,100542.11
2019-03-16T09:55:20.475Z,100530.29
2019-03-16T09:57:50.943Z,100533.36
2019-03-16T10:00:21.281Z,100517.58
2019-03-16T10:02:52.992Z,100529.58
2019-03-16T10:05:23.300Z,100534.71
2019-03-16T10:07:56.131Z,100531.83
2019-03-16T10:10:27.082Z,100533.16
2019-03-16T10:13:04.756Z,100527.16
2019-03-16T10:15:37.030Z,100520.28
2019-03-16T10:18:07.481Z,100520.28
2019-03-16T10:20:38.093Z,100520.42
2019-03-16T10:23:08.481Z,100527.84
2019-03-16T10:25:39.078Z,100497.67
2019-03-16T10:28:09.884Z,100497.67
2019-03-16T10:30:40.639Z,100514.92
2019-03-16T10:33:11.362Z,100515.12
2019-03-16T10:35:41.695Z,100511.46
2019-03-16T10:38:12.060Z,100511.24
2019-03-16T10:40:43.036Z,100495.09
2019-03-16T10:43:13.419Z,100503.90
2019-03-16T10:45:45.451Z,100499.84
2019-03-16T10:48:16.043Z,100499.84
2019-03-16T10:50:46.549Z,100504.52
2019-03-16T10:53:16.835Z,100488.03
2019-03-16T10:55:47.462Z,100480.45
2019-03-16T10:58:17.762Z,100471.95
2019-03-16T11:00:48.079Z,100482.31
2019-03-16T11:03:18.651Z,100472.75
2019-03-16T11:05:48.959Z,100472.75
2019-03-16T11:08:19.548Z,100494.23
2019-03-16T11:10:49.934Z,100500.80
2019-03-16T11:13:20.324Z,100483.58
2019-03-16T11:15:50.679Z,100472.02
2019-03-16T11:18:21.296Z,100470.72
2019-03-16T11:20:52.013Z,100471.75
2019-03-16T11:23:23.749Z,100470.36
2019-03-16T11:25:54.045Z,100481.91
2019-03-16T11:28:24.641Z,100477.59
2019-03-16T11:30:54.959Z,100483.20
2019-03-16T11:33:25.307Z,100496.98
2019-03-16T11:35:55.658Z,100484.07
2019-03-16T11:38:26.882Z,100487.12
2019-03-16T11:40:57.791Z,100475.55
2019-03-16T11:43:28.095Z,100482.44
2019-03-16T11:45:58.738Z,100482.14
2019-03-16T11:48:29.995Z,100480.08
2019-03-16T11:51:00.611Z,100477.45
2019-03-16T11:53:30.964Z,100478.22
2019-03-16T11:56:01.560Z,100472.72
2019-03-16T11:58:32.212Z,100475.55
2019-03-16T12:01:02.915Z,100478.52
2019-03-16T12:03:33.289Z,100472.45
2019-03-16T12:06:03.630Z,100468.08
2019-03-16T12:08:34.890Z,100476.06
2019-03-16T12:11:06.614Z,100471.75
2019-03-16T12:13:36.980Z,100469.25
2019-03-16T12:16:10.061Z,100468.07
2019-03-16T12:18:40.730Z,100461.95
2019-03-16T12:21:11.385Z,100465.80
2019-03-16T12:23:41.911Z,100465.80
2019-03-16T12:26:12.478Z,100467.48
2019-03-16T12:28:42.927Z,100458.50
2019-03-16T12:31:13.291Z,100456.40
2019-03-16T12:33:43.935Z,100442.57
2019-03-16T12:36:14.338Z,100448.88
2019-03-16T12:38:44.941Z,100448.39
2019-03-16T12:41:15.508Z,100439.47
2019-03-16T12:43:46.120Z,100443.78
2019-03-16T12:46:16.520Z,100440.47
2019-03-16T12:48:48.122Z,100435.03
2019-03-16T12:51:18.739Z,100433.39
2019-03-16T12:53:49.010Z,100434.73
2019-03-16T12:56:19.341Z,100423.57
2019-03-16T12:58:50.995Z,100428.14
2019-03-16T13:01:21.613Z,100421.13
2019-03-16T13:03:53.507Z,100423.13
2019-03-16T13:06:24.153Z,100442.26
2019-03-16T13:08:56.844Z,100431.07
2019-03-16T13:11:27.209Z,100429.36
2019-03-16T13:13:58.959Z,100428.03
2019-03-16T13:16:29.632Z,100417.29
2019-03-16T13:19:00.279Z,100425.03
2019-03-16T13:21:30.906Z,100423.83
2019-03-16T13:24:02.451Z,100417.81
2019-03-16T13:26:33.220Z,100415.25
2019-03-16T13:29:03.504Z,100415.25
2019-03-16T13:31:36.807Z,100409.73
2019-03-16T13:34:07.144Z,100403.27
2019-03-16T13:36:37.753Z,100402.09
2019-03-16T13:39:08.485Z,100400.84
2019-03-16T13:41:39.066Z,100410.09
2019-03-16T13:44:09.489Z,100403.37
2019-03-16T13:46:41.146Z,100414.52
2019-03-16T13:49:11.475Z,100409.80
2019-03-16T13:51:42.083Z,100393.19
2019-03-16T13:54:12.752Z,100400.84
2019-03-16T13:56:44.466Z,100404.77
2019-03-16T13:59:14.785Z,100385.55
2019-03-16T14:01:45.552Z,100375.47
2019-03-16T14:04:15.970Z,100385.98
2019-03-16T14:06:47.779Z,100379.30
2019-03-16T14:09:18.307Z,100381.45
2019-03-16T14:11:48.894Z,100377.41
2019-03-16T14:14:19.208Z,100380.66
2019-03-16T14:16:50.471Z,100376.28
2019-03-16T14:19:21.932Z,100371.55
2019-03-16T14:21:52.475Z,100364.67
2019-03-16T14:24:24.750Z,100360.81
2019-03-16T14:26:57.499Z,100367.55
2019-03-16T14:29:27.864Z,100365.34
2019-03-16T14:31:58.217Z,100358.05
2019-03-16T14:34:28.882Z,100360.66
2019-03-16T14:36:59.231Z,100357.69
2019-03-16T14:39:31.532Z,100358.50
2019-03-16T14:42:01.833Z,100364.02
2019-03-16T14:44:32.740Z,100356.39
2019-03-16T14:47:03.087Z,100345.61
2019-03-16T14:49:33.686Z,100352.35
2019-03-16T14:52:04.292Z,100352.75
2019-03-16T14:54:34.597Z,100338.21
2019-03-16T14:57:06.635Z,100339.50
2019-03-16T14:59:37.228Z,100341.30
2019-03-16T15:02:10.132Z,100328.17
2019-03-16T15:04:40.672Z,100334.16
2019-03-16T15:07:11.279Z,100331.02
2019-03-16T15:09:43.413Z,100334.77
2019-03-16T15:12:15.991Z,100324.39
2019-03-16T15:14:46.297Z,100322.75
2019-03-16T15:17:16.819Z,100321.66
2019-03-16T15:19:47.699Z,100311.02
2019-03-16T15:22:18.366Z,100309.41
2019-03-16T15:24:50.954Z,100302.58
2019-03-16T15:27:21.392Z,100304.22
2019-03-16T15:29:54.238Z,100292.02
2019-03-16T15:32:25.681Z,100292.02
2019-03-16T15:34:56.937Z,100280.45
2019-03-16T15:37:27.322Z,100283.48
2019-03-16T15:40:00.394Z,100271.55
2019-03-16T15:42:36.542Z,100285.78
2019-03-16T15:45:13.209Z,100264.02
2019-03-16T15:47:43.964Z,100268.30
2019-03-16T15:50:17.499Z,100262.28
2019-03-16T15:52:47.870Z,100260.91
2019-03-16T15:55:18.202Z,100258.38
2019-03-16T15:57:48.535Z,100257.88
2019-03-16T16:00:19.531Z,100253.16
2019-03-16T16:02:50.063Z,100247.19
2019-03-16T16:05:20.431Z,100236.17
2019-03-16T16:07:50.779Z,100227.72
2019-03-16T16:10:21.060Z,100226.39
2019-03-16T16:12:51.389Z,100225.56
2019-03-16T16:15:22.058Z,100223.86
2019-03-16T16:17:52.699Z,100220.41
2019-03-16T16:20:23.072Z,100222.11
2019-03-16T16:22:53.710Z,100218.67
2019-03-16T16:25:24.443Z,100217.68
2019-03-16T16:27:54.873Z,100217.13
2019-03-16T16:30:25.514Z,100211.86
2019-03-16T16:32:55.883Z,100213.88
2019-03-16T16:35:26.598Z,100209.95
2019-03-16T16:37:58.548Z,100210.34
2019-03-16T16:40:28.922Z,100221.03
2019-03-16T16:42:59.636Z,100212.83
2019-03-16T16:45:29.930Z,100202.92
2019-03-16T16:48:04.413Z,100200.30
2019-03-16T16:50:34.982Z,100193.39
2019-03-16T16:53:05.350Z,100190.36
2019-03-16T16:55:35.679Z,100197.61
2019-03-16T16:58:06.521Z,100190.31
2019-03-16T17:00:38.098Z,100195.40
2019-03-16T17:03:08.666Z,100194.06
2019-03-16T17:05:43.143Z,100194.06
2019-03-16T17:08:22.643Z,100200.84
2019-03-16T17:10:52.982Z,100198.69
2019-03-16T17:13:25.364Z,100195.61
2019-03-16T17:15:55.984Z,100188.31
2019-03-16T17:18:27.949Z,100192.98
2019-03-16T17:20:58.406Z,100194.62
2019-03-16T17:23:28.739Z,100200.54
2019-03-16T17:25:59.673Z,100191.95
2019-03-16T17:28:30.343Z,100186.32
2019-03-16T17:31:01.976Z,100181.59
2019-03-16T17:33:33.776Z,100180.30
2019-03-16T17:36:04.382Z,100171.64
2019-03-16T17:38:34.839Z,100171.64
2019-03-16T17:41:05.675Z,100178.88
2019-03-16T17:43:35.967Z,100169.06
2019-03-16T17:46:06.576Z,100165.22
2019-03-16T17:48:36.975Z,100161.78
2019-03-16T17:51:07.649Z,100155.77
2019-03-16T17:53:38.228Z,100155.72
2019-03-16T17:56:08.582Z,100156.13
2019-03-16T17:58:39.833Z,100152.19
2019-03-16T18:01:12.734Z,100153.41
2019-03-16T18:03:44.167Z,100151.30
2019-03-16T18:06:15.604Z,100160.75
2019-03-16T18:08:47.168Z,100151.30
2019-03-16T18:11:18.379Z,100145.72
2019-03-16T18:13:49.164Z,100145.72
2019-03-16T18:16:19.556Z,100150.42
2019-03-16T18:18:50.317Z,100151.72
2019-03-16T18:21:20.991Z,100144.02
2019-03-16T18:23:51.651Z,100142.27
2019-03-16T18:26:22.002Z,100130.67
2019-03-16T18:28:52.636Z,100132.84
2019-03-16T18:31:22.933Z,100137.25
2019-03-16T18:33:53.243Z,100135.81
2019-03-16T18:36:23.562Z,100135.81
2019-03-16T18:38:54.130Z,100132.37
2019-03-16T18:41:24.718Z,100137.90
2019-03-16T18:43:56.598Z,100138.67
2019-03-16T18:46:26.923Z,100135.59
2019-03-16T18:49:04.819Z,100126.97
2019-03-16T18:51:35.147Z,100126.97
2019-03-16T18:54:06.051Z,100140.26
2019-03-16T18:56:36.361Z,100128.72
2019-03-16T18:59:09.264Z,100144.15
2019-03-16T19:01:38.984Z,100136.88
2019-03-16T19:04:11.273Z,100129.98
2019-03-16T19:06:41.582Z,100129.98
2019-03-16T19:09:12.335Z,100129.95
2019-03-16T19:11:42.647Z,100121.42
2019-03-16T19:14:13.342Z,100117.12
2019-03-16T19:16:47.434Z,100113.73
2019-03-16T19:19:18.614Z,100113.79
2019-03-16T19:21:49.029Z,100107.79
2019-03-16T19:24:19.386Z,100106.16
2019-03-16T19:26:49.728Z,100095.89
2019-03-16T19:29:20.090Z,100089.89
2019-03-16T19:31:50.995Z,100098.52
2019-03-16T19:34:21.641Z,100085.70
2019-03-16T19:36:51.983Z,100082.71
2019-03-16T19:39:24.996Z,100080.10
2019-03-16T19:41:54.382Z,100072.45
2019-03-16T19:44:24.900Z,100078.41
2019-03-16T19:46:55.263Z,100071.13
2019-03-16T19:49:26.811Z,100066.81
2019-03-16T19:51:58.214Z,100065.99
2019-03-16T19:54:28.819Z,100061.69
2019-03-16T19:56:59.431Z,100058.62
2019-03-16T19:59:29.796Z,100058.62
2019-03-16T20:02:01.848Z,100058.20
2019-03-16T20:04:36.155Z,100046.20
2019-03-16T20:07:05.848Z,100049.17
2019-03-16T20:09:36.181Z,100039.33
2019-03-16T20:12:06.666Z,100040.15
2019-03-16T20:14:37.056Z,100033.28
2019-03-16T20:17:08.703Z,100030.30
2019-03-16T20:19:39.031Z,100023.44
2019-03-16T20:22:12.358Z,100016.20
2019-03-16T20:24:42.591Z,100016.25
2019-03-16T20:27:13.500Z,100011.07
2019-03-16T20:29:43.900Z,100012.31
2019-03-16T20:32:14.664Z,100000.37
2019-03-16T20:34:45.600Z,100005.08
2019-03-16T20:37:16.004Z,99999.08
2019-03-16T20:39:47.600Z,99999.03
2019-03-16T20:42:17.991Z,100004.56
2019-03-16T20:44:48.781Z,99993.95
2019-03-16T20:49:55.757Z,99991.39
2019-03-16T20:52:26.056Z,99985.39
2019-03-16T20:54:56.733Z,99979.80
2019-03-16T20:57:27.034Z,99971.66
2019-03-16T20:59:57.660Z,99971.61
2019-03-16T21:02:28.061Z,99970.33
2019-03-16T21:04:58.807Z,99964.73
2019-03-16T21:07:29.107Z,99963.45
2019-03-16T21:10:00.460Z,99961.77
2019-03-16T21:12:30.891Z,99958.42
2019-03-16T21:15:01.217Z,99960.90
2019-03-16T21:17:32.826Z,99952.33
2019-03-16T21:20:03.432Z,99952.33
2019-03-16T21:22:36.375Z,99942.08
2019-03-16T21:25:07.383Z,99937.41
2019-03-16T21:27:37.938Z,99942.91
2019-03-16T21:30:10.545Z,99938.65
2019-03-16T21:32:42.382Z,99938.23
2019-03-16T21:35:13.127Z,99933.52
2019-03-16T21:37:45.038Z,99931.37
2019-03-16T21:40:15.486Z,99928.85
2019-03-16T21:42:46.178Z,99930.60
2019-03-16T21:45:16.592Z,99915.63
2019-03-16T21:47:59.364Z,99933.15
2019-03-16T21:50:20.408Z,99915.20
2019-03-16T21:52:51.051Z,99920.44
2019-03-16T21:55:21.542Z,99915.76
2019-03-16T21:57:51.962Z,99917.83
2019-03-16T22:00:22.399Z,99904.97
2019-03-16T22:02:53.024Z,99908.39
2019-03-16T22:05:23.347Z,99907.53
2019-03-16T22:07:53.830Z,99905.01
2019-03-16T22:10:24.175Z,99896.91
2019-03-16T22:12:55.178Z,99895.63
2019-03-16T22:15:25.494Z,99889.17
2019-03-16T22:17:57.009Z,99889.21
2019-03-16T22:20:29.111Z,99889.21
2019-03-16T22:22:59.542Z,99880.25
2019-03-16T22:25:29.985Z,99879.83
2019-03-16T22:28:03.365Z,99885.33
2019-03-16T22:30:33.715Z,99880.66
2019-03-16T22:33:04.774Z,99887.89
2019-03-16T22:35:35.436Z,99879.75
2019-03-16T22:38:07.258Z,99880.25
2019-03-16T22:40:37.541Z,99879.00
2019-03-16T22:43:07.951Z,99871.78
2019-03-16T22:45:38.750Z,99862.84
2019-03-16T22:48:14.941Z,99862.47
2019-03-16T22:50:45.539Z,99860.32
2019-03-16T22:53:16.444Z,99853.87
2019-03-16T22:55:46.827Z,99847.34
2019-03-16T22:58:17.535Z,99843.86
2019-03-16T23:00:53.089Z,99846.06
2019-03-16T23:03:24.987Z,99840.97
2019-03-16T23:05:55.438Z,99841.42
2019-03-16T23:08:25.850Z,99841.87
2019-03-16T23:10:57.546Z,99837.62
2019-03-16T23:13:27.858Z,99824.92
2019-03-16T23:15:58.434Z,99821.16
2019-03-16T23:18:28.850Z,99820.78
2019-03-16T23:20:59.236Z,99806.75
2019-03-16T23:23:29.603Z,99802.94
2019-03-16T23:26:03.015Z,99807.69
2019-03-16T23:28:33.454Z,99803.49
2019-03-16T23:31:04.846Z,99797.91
2019-03-16T23:33:35.397Z,99799.58
2019-03-16T23:36:09.511Z,99801.69
2019-03-16T23:38:40.066Z,99787.23
2019-03-16T23:41:11.742Z,99792.81
2019-03-16T23:43:42.188Z,99777.00
2019-03-16T23:46:12.557Z,99773.98
2019-03-16T23:48:42.970Z,99779.19
2019-03-16T23:51:13.263Z,99777.45
2019-03-16T23:53:43.820Z,99769.76
2019-03-16T23:56:14.191Z,99775.79
2019-03-16T23:58:44.898Z,99772.35
